createdAt,value
2022-08-26T00:01:41.681Z,101050.13
2022-08-26T00:04:12.034Z,101047.06
2022-08-26T00:06:39.128Z,101051.97
2022-08-26T00:09:09.450Z,101040.66
2022-08-26T00:11:36.419Z,101003.09
2022-08-26T00:14:03.115Z,101008.91
2022-08-26T00:16:30.051Z,101040.25
2022-08-26T00:18:56.949Z,101029.03
2022-08-26T00:21:23.998Z,101006.88
2022-08-26T00:32:06.982Z,101038.72
2022-08-26T00:34:39.575Z,101030.88
2022-08-26T00:37:16.219Z,101037.81
2022-08-26T00:43:46.236Z,100975.41
2022-08-26T00:46:50.914Z,101012.00
2022-08-26T00:49:37.382Z,100994.28
2022-08-26T00:52:07.074Z,101005.69
2022-08-26T00:54:47.145Z,101019.63
2022-08-26T01:02:06.789Z,101036.28
2022-08-26T01:04:48.662Z,101011.63
2022-08-26T01:07:21.852Z,101015.81
2022-08-26T01:09:48.796Z,100982.34
2022-08-26T01:12:15.966Z,100990.81
2022-08-26T01:14:49.694Z,100998.38
2022-08-26T01:17:16.507Z,101016.44
2022-08-26T01:19:50.809Z,100999.56
2022-08-26T01:22:56.152Z,101025.78
2022-08-26T01:25:26.071Z,101006.00
2022-08-26T01:27:57.573Z,101013.09
2022-08-26T01:30:27.178Z,101014.34
2022-08-26T01:32:57.801Z,101016.34
2022-08-26T01:35:25.008Z,101015.19
2022-08-26T01:37:54.620Z,101018.94
2022-08-26T01:43:32.495Z,100974.66
2022-08-26T01:45:59.473Z,100996.13
2022-08-26T01:48:30.244Z,101022.84
2022-08-26T01:51:01.028Z,100964.38
2022-08-26T01:53:31.186Z,100971.66
2022-08-26T01:56:00.854Z,101018.47
2022-08-26T01:58:44.723Z,101009.41
2022-08-26T02:01:11.706Z,100979.47
2022-08-26T02:04:00.667Z,100983.06
2022-08-26T02:06:27.616Z,101007.88
2022-08-26T02:08:56.700Z,100963.84
2022-08-26T02:11:23.750Z,100962.13
2022-08-26T02:14:02.693Z,101012.53
2022-08-26T02:16:34.435Z,100989.50
2022-08-26T02:19:04.223Z,101006.31
2022-08-26T02:21:31.212Z,100991.03
2022-08-26T02:24:09.106Z,101009.81
2022-08-26T02:26:35.995Z,100995.94
2022-08-26T02:29:07.767Z,100953.59
2022-08-26T02:31:34.460Z,100979.13
2022-08-26T02:34:26.216Z,100977.97
2022-08-26T02:37:02.801Z,100995.13
2022-08-26T02:39:33.554Z,100996.13
2022-08-26T02:42:00.188Z,100977.75
2022-08-26T02:44:27.365Z,100979.81
2022-08-26T02:46:54.782Z,100977.56
2022-08-26T02:49:22.392Z,100998.66
2022-08-26T02:51:50.194Z,100958.00
2022-08-26T02:54:19.028Z,100972.31
2022-08-26T02:56:45.803Z,100945.31
2022-08-26T02:59:12.794Z,100948.72
2022-08-26T03:01:40.778Z,100948.84
2022-08-26T03:04:10.492Z,100935.06
2022-08-26T03:06:40.690Z,100987.72
2022-08-26T03:09:11.132Z,100967.53
2022-08-26T03:11:47.410Z,100933.38
2022-08-26T03:14:14.335Z,100986.91
2022-08-26T03:16:41.836Z,100944.25
2022-08-26T03:22:25.245Z,100935.78
2022-08-26T03:25:19.654Z,100930.97
2022-08-26T03:27:53.292Z,100949.38
2022-08-26T03:30:56.596Z,100929.81
2022-08-26T03:36:32.646Z,100936.75
2022-08-26T03:42:07.268Z,100949.72
2022-08-26T03:44:45.578Z,100926.78
2022-08-26T03:47:34.502Z,100954.63
2022-08-26T03:50:17.603Z,100935.59
2022-08-26T03:53:16.177Z,100911.75
2022-08-26T03:56:06.841Z,100931.53
2022-08-26T03:58:58.832Z,100928.00
2022-08-26T04:01:55.921Z,100916.34
2022-08-26T04:04:38.768Z,100924.53
2022-08-26T04:07:17.931Z,100924.00
2022-08-26T04:10:05.957Z,100918.25
2022-08-26T04:13:06.988Z,100918.22
2022-08-26T04:15:56.721Z,100927.75
2022-08-26T04:21:47.305Z,100900.03
2022-08-26T04:24:28.797Z,100893.38
2022-08-26T04:27:07.312Z,100902.63
2022-08-26T04:33:12.607Z,100899.56
2022-08-26T04:36:13.306Z,100953.44
2022-08-26T04:39:32.953Z,100926.09
2022-08-26T04:50:07.611Z,100922.97
2022-08-26T04:52:53.599Z,100907.81
2022-08-26T04:58:52.177Z,100968.59
2022-08-26T05:01:45.133Z,100935.19
2022-08-26T05:05:05.556Z,100932.53
2022-08-26T05:07:36.731Z,100955.00
2022-08-26T06:34:58.222Z,100915.72
2022-08-26T07:00:36.026Z,100936.38
2022-08-26T07:10:26.474Z,100955.19
2022-08-26T08:52:59.391Z,100869.47
2022-08-26T08:56:03.343Z,100873.50
2022-08-26T08:58:59.171Z,100896.19
2022-08-26T09:05:34.722Z,100897.25
2022-08-26T09:08:15.825Z,100852.25
2022-08-26T09:11:14.093Z,100867.25
2022-08-26T09:13:47.880Z,100865.16
2022-08-26T09:16:28.105Z,100882.00
2022-08-26T09:19:33.857Z,100848.69
2022-08-26T09:22:08.769Z,100859.66
2022-08-26T09:24:56.459Z,100862.97
2022-08-26T09:28:02.858Z,100892.16
2022-08-26T09:30:41.526Z,100848.19
2022-08-26T09:33:24.333Z,100841.66
2022-08-26T09:36:31.328Z,100845.22
2022-08-26T09:42:06.893Z,100854.59
2022-08-26T09:45:25.783Z,100837.91
2022-08-26T09:48:04.989Z,100853.72
2022-08-26T09:51:28.084Z,100865.91
2022-08-26T09:58:08.738Z,100819.94
2022-08-26T10:01:07.065Z,100805.16
2022-08-26T10:03:41.286Z,100842.34
2022-08-26T10:06:17.072Z,100841.38
2022-08-26T10:08:57.778Z,100790.94
2022-08-26T10:15:16.196Z,100793.81
2022-08-26T10:22:18.832Z,100788.22
2022-08-26T10:25:09.032Z,100805.97
2022-08-26T10:31:40.384Z,100755.38
2022-08-26T10:34:12.583Z,100742.31
2022-08-26T10:37:41.747Z,100785.50
2022-08-26T10:40:35.812Z,100736.53
2022-08-26T10:43:31.952Z,100727.25
2022-08-26T10:46:10.147Z,100712.41
2022-08-26T10:49:08.614Z,100769.22
2022-08-26T10:51:54.995Z,100749.72
2022-08-26T10:54:46.593Z,100745.94
2022-08-26T10:58:26.578Z,100738.31
2022-08-26T11:01:47.066Z,100704.31
2022-08-26T11:08:36.532Z,100723.09
2022-08-26T11:11:03.259Z,100681.38
2022-08-26T11:14:16.624Z,100722.47
2022-08-26T11:16:59.159Z,100694.16
2022-08-26T11:19:58.879Z,100736.13
2022-08-26T11:22:30.364Z,100725.00
2022-08-26T11:24:57.497Z,100719.47
2022-08-26T11:27:25.001Z,100710.31
2022-08-26T11:35:38.086Z,100692.44
2022-08-26T11:38:28.630Z,100699.75
2022-08-26T11:41:22.659Z,100710.00
2022-08-26T11:43:53.222Z,100676.03
2022-08-26T11:46:35.867Z,100725.41
2022-08-26T11:49:06.063Z,100689.75
2022-08-26T11:51:38.215Z,100723.31
2022-08-26T12:06:29.859Z,100767.59
2022-08-26T12:09:06.222Z,100783.59
2022-08-26T12:11:42.096Z,100754.53
2022-08-26T12:14:27.710Z,100746.91
2022-08-26T12:16:54.808Z,100761.16
2022-08-26T12:19:46.224Z,100757.50
2022-08-26T12:22:29.431Z,100792.97
2022-08-26T12:24:59.208Z,100773.19
2022-08-26T12:27:35.687Z,100728.72
2022-08-26T13:01:43.585Z,100837.06
2022-08-26T13:04:31.961Z,100835.84
2022-08-26T13:07:27.304Z,100827.25
2022-08-26T13:10:02.425Z,100762.31
2022-08-26T13:12:34.892Z,100798.81
2022-08-26T13:17:29.816Z,100822.56
2022-08-26T13:20:01.275Z,100819.78
2022-08-26T13:22:30.069Z,100829.41
2022-08-26T13:24:57.526Z,100796.97
2022-08-26T13:27:26.434Z,100778.88
2022-08-26T13:29:54.008Z,100801.34
2022-08-26T13:32:25.175Z,100774.91
2022-08-26T13:34:56.434Z,100830.22
2022-08-26T13:37:34.383Z,100794.88
2022-08-26T13:40:04.906Z,100828.72
2022-08-26T13:42:31.525Z,100830.94
2022-08-26T13:44:58.942Z,100832.84
2022-08-26T13:47:26.247Z,100811.44
2022-08-26T13:49:54.596Z,100811.34
2022-08-26T13:52:29.155Z,100801.16
2022-08-26T13:54:57.274Z,100802.13
2022-08-26T13:57:24.753Z,100766.72
2022-08-26T13:59:53.986Z,100776.31
2022-08-26T14:02:31.228Z,100770.94
2022-08-26T14:04:57.811Z,100790.28
2022-08-26T14:07:24.555Z,100779.47
2022-08-26T14:09:51.134Z,100777.06
2022-08-26T14:12:17.933Z,100753.00
2022-08-26T14:14:45.081Z,100734.31
2022-08-26T14:17:17.784Z,100742.16
2022-08-26T14:19:47.058Z,100726.66
2022-08-26T14:22:17.385Z,100737.38
2022-08-26T14:24:45.150Z,100762.81
2022-08-26T14:27:12.962Z,100761.84
2022-08-26T14:29:40.101Z,100764.56
2022-08-26T14:32:11.525Z,100774.28
2022-08-26T14:34:41.397Z,100776.31
2022-08-26T14:37:09.889Z,100791.28
2022-08-26T14:39:39.021Z,100785.22
2022-08-26T14:42:06.520Z,100814.97
2022-08-26T14:44:33.652Z,100839.75
2022-08-26T14:47:03.855Z,100803.84
2022-08-26T14:49:31.334Z,100785.94
2022-08-26T14:52:01.417Z,100777.66
2022-08-26T14:54:29.585Z,100760.66
2022-08-26T14:57:19.627Z,100710.72
2022-08-26T14:59:52.940Z,100685.31
2022-08-26T15:02:33.196Z,100676.69
2022-08-26T15:05:00.492Z,100709.81
2022-08-26T15:07:41.783Z,100709.53
2022-08-26T15:10:13.444Z,100705.47
2022-08-26T15:12:42.462Z,100736.41
2022-08-26T15:15:11.301Z,100732.53
2022-08-26T15:17:41.141Z,100731.50
2022-08-26T15:20:12.550Z,100731.50
2022-08-26T15:22:39.919Z,100738.59
2022-08-26T15:25:07.705Z,100720.19
2022-08-26T15:27:36.808Z,100708.09
2022-08-26T15:30:07.018Z,100706.19
2022-08-26T15:32:33.562Z,100656.94
2022-08-26T15:35:00.075Z,100672.63
2022-08-26T15:37:26.589Z,100660.28
2022-08-26T15:39:58.802Z,100639.22
2022-08-26T15:42:25.438Z,100636.94
2022-08-26T15:44:52.377Z,100635.47
2022-08-26T15:47:19.252Z,100630.50
2022-08-26T15:49:45.898Z,100637.19
2022-08-26T15:52:12.401Z,100643.31
2022-08-26T15:54:39.659Z,100660.38
2022-08-26T15:57:10.757Z,100639.50
2022-08-26T15:59:38.171Z,100658.50
2022-08-26T16:02:05.424Z,100657.75
2022-08-26T16:04:32.309Z,100640.16
2022-08-26T16:06:59.191Z,100645.25
2022-08-26T16:09:27.227Z,100623.22
2022-08-26T16:11:54.950Z,100616.66
2022-08-26T16:14:22.252Z,100608.28
2022-08-26T16:16:49.020Z,100594.88
2022-08-26T16:19:15.860Z,100622.03
2022-08-26T16:21:43.106Z,100592.94
2022-08-26T16:24:09.950Z,100621.25
2022-08-26T16:26:38.610Z,100617.56
2022-08-26T16:29:14.486Z,100632.84
2022-08-26T16:31:41.845Z,100612.00
2022-08-26T16:34:09.612Z,100640.97
2022-08-26T16:36:42.687Z,100600.31
2022-08-26T16:39:15.678Z,100616.31
2022-08-26T16:41:42.426Z,100587.28
2022-08-26T16:44:12.250Z,100638.47
2022-08-26T16:46:39.833Z,100629.41
2022-08-26T16:49:06.628Z,100630.84
2022-08-26T16:51:48.751Z,100618.06
2022-08-26T16:54:15.859Z,100620.50
2022-08-26T16:56:42.651Z,100631.16
2022-08-26T16:59:11.714Z,100623.13
2022-08-26T17:01:38.722Z,100661.94
2022-08-26T17:04:05.411Z,100640.28
2022-08-26T17:06:31.909Z,100659.97
2022-08-26T17:08:58.645Z,100632.88
2022-08-26T17:11:25.567Z,100664.03
2022-08-26T17:13:52.270Z,100670.97
2022-08-26T17:16:21.278Z,100672.00
2022-08-26T17:18:49.965Z,100674.06
2022-08-26T17:21:16.688Z,100668.28
2022-08-26T17:23:43.736Z,100641.38
2022-08-26T17:26:12.128Z,100655.31
2022-08-26T17:28:39.649Z,100639.72
2022-08-26T17:31:06.940Z,100672.28
2022-08-26T17:33:33.984Z,100642.16
2022-08-26T17:36:00.780Z,100678.59
2022-08-26T17:38:29.320Z,100663.38
2022-08-26T17:41:07.192Z,100676.88
2022-08-26T17:43:34.566Z,100638.66
2022-08-26T17:46:07.486Z,100658.13
2022-08-26T17:48:57.137Z,100653.75
2022-08-26T17:51:37.771Z,100686.03
2022-08-26T17:54:36.038Z,100621.91
2022-08-26T21:37:21.889Z,100701.53
2022-08-26T21:39:48.720Z,100664.53
2022-08-26T21:42:38.492Z,100713.94
2022-08-26T21:48:50.524Z,100660.09
2022-08-26T21:51:20.148Z,100670.81
2022-08-26T21:53:47.449Z,100672.31
2022-08-26T21:56:17.107Z,100680.31
2022-08-26T21:58:44.241Z,100696.03
2022-08-26T22:01:17.271Z,100656.03
2022-08-26T22:05:23.472Z,100667.72
2022-08-26T22:07:50.115Z,100686.94
2022-08-26T22:10:35.360Z,100706.25
2022-08-26T22:21:00.912Z,100720.84
2022-08-26T22:23:30.721Z,100720.75
2022-08-26T22:26:00.874Z,100677.59
2022-08-26T22:28:38.393Z,100676.56
2022-08-26T22:36:01.978Z,100717.66
2022-08-26T22:38:28.647Z,100697.09
2022-08-26T22:40:56.562Z,100701.81
2022-08-26T22:43:27.830Z,100699.69
2022-08-26T22:45:55.813Z,100635.66
2022-08-26T22:48:24.598Z,100623.78
2022-08-26T22:50:58.239Z,100655.88
2022-08-26T22:53:26.628Z,100671.31
2022-08-26T22:55:53.509Z,100624.13
2022-08-26T22:58:20.592Z,100647.53
2022-08-26T23:00:59.241Z,100632.44
2022-08-26T23:03:27.228Z,100640.25
2022-08-26T23:05:55.394Z,100644.66
2022-08-26T23:08:23.188Z,100635.69
2022-08-26T23:10:49.745Z,100611.03
2022-08-26T23:13:16.265Z,100620.72
2022-08-26T23:15:44.737Z,100613.78
2022-08-26T23:18:12.882Z,100616.97
2022-08-26T23:20:40.647Z,100605.31
2022-08-26T23:23:07.574Z,100611.91
2022-08-26T23:25:34.411Z,100619.53
2022-08-26T23:28:01.931Z,100625.31
2022-08-26T23:30:31.186Z,100645.69
2022-08-26T23:32:57.942Z,100644.16
2022-08-26T23:35:24.847Z,100653.66
2022-08-26T23:37:53.049Z,100638.72
2022-08-26T23:40:25.501Z,100650.25
2022-08-26T23:42:54.389Z,100656.19
2022-08-26T23:45:22.168Z,100640.91
2022-08-26T23:47:50.582Z,100648.91
2022-08-26T23:50:19.574Z,100653.31
2022-08-26T23:53:05.625Z,100623.94
2022-08-26T23:55:37.256Z,100648.88
2022-08-26T23:58:04.545Z,100647.84
